sensor_id;sensor_type;location;lat;lon;timestamp;temperature;humidity
65568;DHT22;52211;50.154;8.682;2022-08-11T00:00:45;23.60;29.30
65568;DHT22;52211;50.154;8.682;2022-08-11T00:03:14;23.50;29.50
65568;DHT22;52211;50.154;8.682;2022-08-11T00:05:45;23.50;29.20
65568;DHT22;52211;50.154;8.682;2022-08-11T00:08:26;23.50;29.30
65568;DHT22;52211;50.154;8.682;2022-08-11T00:11:02;23.50;29.90
65568;DHT22;52211;50.154;8.682;2022-08-11T00:13:43;23.40;29.70
65568;DHT22;52211;50.154;8.682;2022-08-11T00:16:21;23.40;30.00
65568;DHT22;52211;50.154;8.682;2022-08-11T00:18:54;23.30;29.90
65568;DHT22;52211;50.154;8.682;2022-08-11T00:21:25;23.30;29.80
65568;DHT22;52211;50.154;8.682;2022-08-11T00:24:12;23.30;29.90
65568;DHT22;52211;50.154;8.682;2022-08-11T00:26:48;23.20;29.80
65568;DHT22;52211;50.154;8.682;2022-08-11T00:29:20;23.10;30.20
65568;DHT22;52211;50.154;8.682;2022-08-11T00:31:52;23.00;30.00
65568;DHT22;52211;50.154;8.682;2022-08-11T00:34:29;22.90;30.10
65568;DHT22;52211;50.154;8.682;2022-08-11T00:39:50;22.80;30.30
65568;DHT22;52211;50.154;8.682;2022-08-11T00:42:51;22.70;30.40
65568;DHT22;52211;50.154;8.682;2022-08-11T00:45:39;22.60;31.20
65568;DHT22;52211;50.154;8.682;2022-08-11T01:01:33;22.40;30.80
65568;DHT22;52211;50.154;8.682;2022-08-11T01:13:44;22.20;31.80
65568;DHT22;52211;50.154;8.682;2022-08-11T01:48:27;21.90;32.20
65568;DHT22;52211;50.154;8.682;2022-08-11T01:54:05;21.80;32.30
65568;DHT22;52211;50.154;8.682;2022-08-11T02:00:17;21.80;32.50
65568;DHT22;52211;50.154;8.682;2022-08-11T02:03:06;21.80;32.20
65568;DHT22;52211;50.154;8.682;2022-08-11T02:05:56;21.80;32.70
65568;DHT22;52211;50.154;8.682;2022-08-11T02:08:46;21.70;32.30
65568;DHT22;52211;50.154;8.682;2022-08-11T02:11:29;21.70;32.90
65568;DHT22;52211;50.154;8.682;2022-08-11T02:17:14;21.70;33.10
65568;DHT22;52211;50.154;8.682;2022-08-11T02:20:06;21.60;33.00
65568;DHT22;52211;50.154;8.682;2022-08-11T02:23:01;21.60;33.10
65568;DHT22;52211;50.154;8.682;2022-08-11T02:26:41;21.60;32.70
65568;DHT22;52211;50.154;8.682;2022-08-11T02:29:27;21.60;32.50
65568;DHT22;52211;50.154;8.682;2022-08-11T02:37:41;21.50;32.70
65568;DHT22;52211;50.154;8.682;2022-08-11T02:45:53;21.40;33.60
65568;DHT22;52211;50.154;8.682;2022-08-11T02:48:59;21.40;33.60
65568;DHT22;52211;50.154;8.682;2022-08-11T02:52:13;21.40;33.70
65568;DHT22;52211;50.154;8.682;2022-08-11T02:54:52;21.30;33.80
65568;DHT22;52211;50.154;8.682;2022-08-11T02:57:46;21.30;33.20
65568;DHT22;52211;50.154;8.682;2022-08-11T03:00:22;21.30;33.80
65568;DHT22;52211;50.154;8.682;2022-08-11T03:09:29;21.20;34.20
65568;DHT22;52211;50.154;8.682;2022-08-11T03:12:35;21.10;34.30
65568;DHT22;52211;50.154;8.682;2022-08-11T03:19:25;21.00;34.30
65568;DHT22;52211;50.154;8.682;2022-08-11T03:22:35;20.90;34.50
65568;DHT22;52211;50.154;8.682;2022-08-11T03:28:50;20.90;34.80
65568;DHT22;52211;50.154;8.682;2022-08-11T03:31:36;20.90;34.70
65568;DHT22;52211;50.154;8.682;2022-08-11T03:34:21;20.80;34.10
65568;DHT22;52211;50.154;8.682;2022-08-11T04:00:09;20.60;35.00
65568;DHT22;52211;50.154;8.682;2022-08-11T04:03:38;20.60;35.30
65568;DHT22;52211;50.154;8.682;2022-08-11T04:28:59;20.30;35.90
65568;DHT22;52211;50.154;8.682;2022-08-11T04:32:20;20.30;36.00
65568;DHT22;52211;50.154;8.682;2022-08-11T04:34:43;20.30;35.40
65568;DHT22;52211;50.154;8.682;2022-08-11T04:47:12;20.30;36.40
65568;DHT22;52211;50.154;8.682;2022-08-11T04:53:59;20.30;36.70
65568;DHT22;52211;50.154;8.682;2022-08-11T04:57:04;20.30;36.80
65568;DHT22;52211;50.154;8.682;2022-08-11T05:00:07;20.30;36.20
65568;DHT22;52211;50.154;8.682;2022-08-11T05:03:30;20.40;36.70
65568;DHT22;52211;50.154;8.682;2022-08-11T05:09:27;20.40;36.10
65568;DHT22;52211;50.154;8.682;2022-08-11T05:14:55;20.50;36.40
65568;DHT22;52211;50.154;8.682;2022-08-11T05:18:00;20.60;36.30
65568;DHT22;52211;50.154;8.682;2022-08-11T05:20:55;20.60;36.90
65568;DHT22;52211;50.154;8.682;2022-08-11T05:23:50;20.60;36.30
65568;DHT22;52211;50.154;8.682;2022-08-11T05:26:47;20.60;36.70
65568;DHT22;52211;50.154;8.682;2022-08-11T05:29:44;20.60;36.70
65568;DHT22;52211;50.154;8.682;2022-08-11T05:32:38;20.70;36.70
65568;DHT22;52211;50.154;8.682;2022-08-11T05:35:40;20.70;36.90
65568;DHT22;52211;50.154;8.682;2022-08-11T05:38:29;20.70;37.20
65568;DHT22;52211;50.154;8.682;2022-08-11T05:41:24;20.80;36.80
65568;DHT22;52211;50.154;8.682;2022-08-11T05:44:19;20.80;36.70
65568;DHT22;52211;50.154;8.682;2022-08-11T05:47:06;20.80;37.00
65568;DHT22;52211;50.154;8.682;2022-08-11T05:49:58;20.90;36.80
65568;DHT22;52211;50.154;8.682;2022-08-11T05:52:57;20.90;37.00
65568;DHT22;52211;50.154;8.682;2022-08-11T05:55:44;21.00;36.80
65568;DHT22;52211;50.154;8.682;2022-08-11T05:58:38;21.00;36.90
65568;DHT22;52211;50.154;8.682;2022-08-11T06:01:11;21.10;36.90
65568;DHT22;52211;50.154;8.682;2022-08-11T06:03:45;21.10;37.00
65568;DHT22;52211;50.154;8.682;2022-08-11T06:06:35;21.20;37.20
65568;DHT22;52211;50.154;8.682;2022-08-11T06:09:11;21.20;37.00
65568;DHT22;52211;50.154;8.682;2022-08-11T06:11:42;21.30;37.10
65568;DHT22;52211;50.154;8.682;2022-08-11T06:14:11;21.40;37.20
65568;DHT22;52211;50.154;8.682;2022-08-11T06:16:47;21.40;37.30
65568;DHT22;52211;50.154;8.682;2022-08-11T06:19:22;21.40;37.60
65568;DHT22;52211;50.154;8.682;2022-08-11T06:22:00;21.50;37.40
65568;DHT22;52211;50.154;8.682;2022-08-11T06:24:30;21.50;37.30
65568;DHT22;52211;50.154;8.682;2022-08-11T06:27:02;21.60;37.30
65568;DHT22;52211;50.154;8.682;2022-08-11T06:29:46;21.70;37.50
65568;DHT22;52211;50.154;8.682;2022-08-11T06:32:28;21.80;37.60
65568;DHT22;52211;50.154;8.682;2022-08-11T06:35:12;21.90;37.60
65568;DHT22;52211;50.154;8.682;2022-08-11T06:38:12;22.00;37.60
65568;DHT22;52211;50.154;8.682;2022-08-11T06:41:19;22.10;37.90
65568;DHT22;52211;50.154;8.682;2022-08-11T06:46:42;22.20;37.40
65568;DHT22;52211;50.154;8.682;2022-08-11T06:49:15;22.30;37.30
65568;DHT22;52211;50.154;8.682;2022-08-11T06:52:09;22.40;37.30
65568;DHT22;52211;50.154;8.682;2022-08-11T06:55:04;22.50;37.30
65568;DHT22;52211;50.154;8.682;2022-08-11T06:57:54;22.60;37.20
65568;DHT22;52211;50.154;8.682;2022-08-11T07:00:56;22.70;37.20
65568;DHT22;52211;50.154;8.682;2022-08-11T07:03:30;22.80;37.20
65568;DHT22;52211;50.154;8.682;2022-08-11T07:12:42;23.00;37.10
65568;DHT22;52211;50.154;8.682;2022-08-11T07:15:34;23.20;37.20
65568;DHT22;52211;50.154;8.682;2022-08-11T07:18:32;23.30;37.10
65568;DHT22;52211;50.154;8.682;2022-08-11T07:21:31;23.40;37.00
65568;DHT22;52211;50.154;8.682;2022-08-11T07:24:34;23.50;37.10
65568;DHT22;52211;50.154;8.682;2022-08-11T07:27:35;23.60;37.00
65568;DHT22;52211;50.154;8.682;2022-08-11T07:30:29;23.70;36.90
65568;DHT22;52211;50.154;8.682;2022-08-11T07:33:02;23.80;36.70
65568;DHT22;52211;50.154;8.682;2022-08-11T07:35:57;23.80;36.70
65568;DHT22;52211;50.154;8.682;2022-08-11T07:38:39;23.90;36.60
65568;DHT22;52211;50.154;8.682;2022-08-11T07:41:15;24.00;36.60
65568;DHT22;52211;50.154;8.682;2022-08-11T07:43:50;24.10;36.60
65568;DHT22;52211;50.154;8.682;2022-08-11T07:46:25;24.20;36.60
65568;DHT22;52211;50.154;8.682;2022-08-11T07:49:10;24.30;36.40
65568;DHT22;52211;50.154;8.682;2022-08-11T07:51:58;24.40;36.40
65568;DHT22;52211;50.154;8.682;2022-08-11T07:54:49;24.50;36.30
65568;DHT22;52211;50.154;8.682;2022-08-11T07:57:21;24.60;36.40
65568;DHT22;52211;50.154;8.682;2022-08-11T08:00:27;24.70;36.40
65568;DHT22;52211;50.154;8.682;2022-08-11T08:03:18;24.80;36.20
65568;DHT22;52211;50.154;8.682;2022-08-11T08:06:20;24.90;36.20
65568;DHT22;52211;50.154;8.682;2022-08-11T08:09:10;25.10;36.20
65568;DHT22;52211;50.154;8.682;2022-08-11T08:11:59;25.10;36.10
65568;DHT22;52211;50.154;8.682;2022-08-11T08:14:48;25.20;36.00
65568;DHT22;52211;50.154;8.682;2022-08-11T08:17:35;25.40;36.10
65568;DHT22;52211;50.154;8.682;2022-08-11T08:20:45;25.40;36.00
65568;DHT22;52211;50.154;8.682;2022-08-11T08:23:20;25.60;36.10
65568;DHT22;52211;50.154;8.682;2022-08-11T08:26:02;25.60;36.00
65568;DHT22;52211;50.154;8.682;2022-08-11T08:28:52;25.80;36.00
65568;DHT22;52211;50.154;8.682;2022-08-11T08:31:24;25.90;35.90
65568;DHT22;52211;50.154;8.682;2022-08-11T08:33:53;26.00;35.90
65568;DHT22;52211;50.154;8.682;2022-08-11T08:36:24;26.10;35.80
65568;DHT22;52211;50.154;8.682;2022-08-11T08:38:52;26.20;35.80
65568;DHT22;52211;50.154;8.682;2022-08-11T08:41:26;26.30;35.70
65568;DHT22;52211;50.154;8.682;2022-08-11T08:43:58;26.40;35.60
65568;DHT22;52211;50.154;8.682;2022-08-11T08:46:57;26.50;35.50
65568;DHT22;52211;50.154;8.682;2022-08-11T08:49:32;26.60;35.30
65568;DHT22;52211;50.154;8.682;2022-08-11T08:52:10;26.70;35.30
65568;DHT22;52211;50.154;8.682;2022-08-11T08:55:02;26.80;35.30
65568;DHT22;52211;50.154;8.682;2022-08-11T08:57:34;27.00;35.10
65568;DHT22;52211;50.154;8.682;2022-08-11T09:00:06;27.00;35.10
65568;DHT22;52211;50.154;8.682;2022-08-11T09:02:40;27.10;35.00
65568;DHT22;52211;50.154;8.682;2022-08-11T09:05:11;27.20;34.80
65568;DHT22;52211;50.154;8.682;2022-08-11T09:07:42;27.30;34.90
65568;DHT22;52211;50.154;8.682;2022-08-11T09:10:18;27.40;34.80
65568;DHT22;52211;50.154;8.682;2022-08-11T09:12:49;27.50;34.60
65568;DHT22;52211;50.154;8.682;2022-08-11T09:15:17;27.60;34.40
65568;DHT22;52211;50.154;8.682;2022-08-11T09:17:55;27.70;34.40
65568;DHT22;52211;50.154;8.682;2022-08-11T09:20:32;27.80;34.30
65568;DHT22;52211;50.154;8.682;2022-08-11T09:23:06;27.90;34.30
65568;DHT22;52211;50.154;8.682;2022-08-11T09:26:13;27.90;34.10
65568;DHT22;52211;50.154;8.682;2022-08-11T09:29:00;28.10;34.30
65568;DHT22;52211;50.154;8.682;2022-08-11T09:31:30;28.20;34.10
65568;DHT22;52211;50.154;8.682;2022-08-11T09:34:06;28.20;33.90
65568;DHT22;52211;50.154;8.682;2022-08-11T09:36:40;28.30;33.90
65568;DHT22;52211;50.154;8.682;2022-08-11T09:39:29;28.40;34.40
65568;DHT22;52211;50.154;8.682;2022-08-11T09:42:20;28.50;33.70
65568;DHT22;52211;50.154;8.682;2022-08-11T09:44:50;28.60;33.60
65568;DHT22;52211;50.154;8.682;2022-08-11T09:47:27;28.70;33.50
65568;DHT22;52211;50.154;8.682;2022-08-11T09:50:00;28.80;33.30
65568;DHT22;52211;50.154;8.682;2022-08-11T09:52:33;28.90;33.20
65568;DHT22;52211;50.154;8.682;2022-08-11T09:55:23;28.90;33.10
65568;DHT22;52211;50.154;8.682;2022-08-11T09:57:55;29.00;33.10
65568;DHT22;52211;50.154;8.682;2022-08-11T10:01:02;29.10;33.00
65568;DHT22;52211;50.154;8.682;2022-08-11T10:03:31;29.20;33.00
65568;DHT22;52211;50.154;8.682;2022-08-11T10:06:06;29.30;32.70
65568;DHT22;52211;50.154;8.682;2022-08-11T10:09:01;29.40;32.60
65568;DHT22;52211;50.154;8.682;2022-08-11T10:11:37;29.50;32.50
65568;DHT22;52211;50.154;8.682;2022-08-11T10:14:07;29.70;32.30
65568;DHT22;52211;50.154;8.682;2022-08-11T10:17:06;29.70;32.20
65568;DHT22;52211;50.154;8.682;2022-08-11T10:19:38;29.80;32.00
65568;DHT22;52211;50.154;8.682;2022-08-11T10:22:08;29.80;32.10
65568;DHT22;52211;50.154;8.682;2022-08-11T10:24:58;29.90;32.10
65568;DHT22;52211;50.154;8.682;2022-08-11T10:27:47;29.90;32.00
65568;DHT22;52211;50.154;8.682;2022-08-11T10:30:51;30.00;31.90
65568;DHT22;52211;50.154;8.682;2022-08-11T10:33:43;30.00;31.40
65568;DHT22;52211;50.154;8.682;2022-08-11T10:36:33;30.10;31.40
65568;DHT22;52211;50.154;8.682;2022-08-11T10:39:22;30.20;31.40
65568;DHT22;52211;50.154;8.682;2022-08-11T10:41:53;30.20;31.10
65568;DHT22;52211;50.154;8.682;2022-08-11T10:45:03;30.30;31.30
65568;DHT22;52211;50.154;8.682;2022-08-11T10:47:56;30.40;31.00
65568;DHT22;52211;50.154;8.682;2022-08-11T10:50:26;30.50;31.20
65568;DHT22;52211;50.154;8.682;2022-08-11T10:53:13;30.60;31.00
65568;DHT22;52211;50.154;8.682;2022-08-11T10:56:04;30.80;31.10
65568;DHT22;52211;50.154;8.682;2022-08-11T10:58:51;31.00;31.00
65568;DHT22;52211;50.154;8.682;2022-08-11T11:01:33;31.20;31.00
65568;DHT22;52211;50.154;8.682;2022-08-11T11:04:04;31.40;30.40
65568;DHT22;52211;50.154;8.682;2022-08-11T11:07:01;31.60;30.70
65568;DHT22;52211;50.154;8.682;2022-08-11T11:09:48;31.80;30.10
65568;DHT22;52211;50.154;8.682;2022-08-11T11:15:29;32.10;30.00
65568;DHT22;52211;50.154;8.682;2022-08-11T11:37:50;33.50;28.80
65568;DHT22;52211;50.154;8.682;2022-08-11T11:40:31;33.70;29.00
65568;DHT22;52211;50.154;8.682;2022-08-11T11:42:59;33.90;29.00
65568;DHT22;52211;50.154;8.682;2022-08-11T11:45:30;34.00;28.80
65568;DHT22;52211;50.154;8.682;2022-08-11T11:47:59;34.20;28.80
65568;DHT22;52211;50.154;8.682;2022-08-11T11:50:30;34.30;28.70
65568;DHT22;52211;50.154;8.682;2022-08-11T11:53:08;34.50;28.50
65568;DHT22;52211;50.154;8.682;2022-08-11T11:55:36;34.70;28.10
65568;DHT22;52211;50.154;8.682;2022-08-11T11:58:05;34.80;28.40
65568;DHT22;52211;50.154;8.682;2022-08-11T12:00:53;35.10;28.30
65568;DHT22;52211;50.154;8.682;2022-08-11T12:03:42;35.20;27.80
65568;DHT22;52211;50.154;8.682;2022-08-11T12:06:14;35.40;27.80
65568;DHT22;52211;50.154;8.682;2022-08-11T12:08:43;35.70;27.80
65568;DHT22;52211;50.154;8.682;2022-08-11T12:11:18;35.80;27.70
65568;DHT22;52211;50.154;8.682;2022-08-11T12:14:10;36.00;27.50
65568;DHT22;52211;50.154;8.682;2022-08-11T12:16:46;36.20;27.30
65568;DHT22;52211;50.154;8.682;2022-08-11T12:19:18;36.50;26.90
65568;DHT22;52211;50.154;8.682;2022-08-11T12:21:54;36.60;26.30
65568;DHT22;52211;50.154;8.682;2022-08-11T12:24:41;36.70;25.70
65568;DHT22;52211;50.154;8.682;2022-08-11T12:27:31;36.80;26.70
65568;DHT22;52211;50.154;8.682;2022-08-11T12:30:04;37.10;26.60
65568;DHT22;52211;50.154;8.682;2022-08-11T12:32:34;37.30;26.40
65568;DHT22;52211;50.154;8.682;2022-08-11T12:35:06;37.40;26.80
65568;DHT22;52211;50.154;8.682;2022-08-11T12:37:44;37.70;26.20
65568;DHT22;52211;50.154;8.682;2022-08-11T12:40:23;38.00;26.10
65568;DHT22;52211;50.154;8.682;2022-08-11T12:43:31;38.20;25.80
65568;DHT22;52211;50.154;8.682;2022-08-11T12:46:32;38.50;25.90
65568;DHT22;52211;50.154;8.682;2022-08-11T12:49:14;38.80;25.50
65568;DHT22;52211;50.154;8.682;2022-08-11T12:52:14;39.00;25.10
65568;DHT22;52211;50.154;8.682;2022-08-11T12:55:14;39.20;25.30
65568;DHT22;52211;50.154;8.682;2022-08-11T12:58:03;39.40;25.30
65568;DHT22;52211;50.154;8.682;2022-08-11T13:00:47;39.60;25.30
65568;DHT22;52211;50.154;8.682;2022-08-11T13:03:38;39.80;25.00
65568;DHT22;52211;50.154;8.682;2022-08-11T13:06:24;40.10;25.10
65568;DHT22;52211;50.154;8.682;2022-08-11T13:08:55;40.20;25.00
65568;DHT22;52211;50.154;8.682;2022-08-11T13:11:30;40.40;24.90
65568;DHT22;52211;50.154;8.682;2022-08-11T13:14:25;40.60;24.90
65568;DHT22;52211;50.154;8.682;2022-08-11T13:16:53;40.80;24.50
65568;DHT22;52211;50.154;8.682;2022-08-11T13:19:41;41.00;24.60
65568;DHT22;52211;50.154;8.682;2022-08-11T13:22:17;41.20;24.30
65568;DHT22;52211;50.154;8.682;2022-08-11T13:24:48;41.50;24.00
65568;DHT22;52211;50.154;8.682;2022-08-11T13:27:21;41.70;24.00
65568;DHT22;52211;50.154;8.682;2022-08-11T13:29:50;41.90;24.10
65568;DHT22;52211;50.154;8.682;2022-08-11T13:32:41;42.00;24.40
65568;DHT22;52211;50.154;8.682;2022-08-11T13:35:15;42.30;24.30
65568;DHT22;52211;50.154;8.682;2022-08-11T13:37:46;42.40;23.70
65568;DHT22;52211;50.154;8.682;2022-08-11T13:40:36;42.60;23.40
65568;DHT22;52211;50.154;8.682;2022-08-11T13:43:22;42.80;23.40
65568;DHT22;52211;50.154;8.682;2022-08-11T13:45:52;43.00;23.30
65568;DHT22;52211;50.154;8.682;2022-08-11T13:48:40;43.10;23.20
65568;DHT22;52211;50.154;8.682;2022-08-11T13:51:11;43.20;23.10
65568;DHT22;52211;50.154;8.682;2022-08-11T13:54:05;43.30;23.00
65568;DHT22;52211;50.154;8.682;2022-08-11T13:56:37;43.50;22.70
65568;DHT22;52211;50.154;8.682;2022-08-11T13:59:11;43.60;22.80
65568;DHT22;52211;50.154;8.682;2022-08-11T14:01:54;43.70;22.50
65568;DHT22;52211;50.154;8.682;2022-08-11T14:04:55;43.70;22.40
65568;DHT22;52211;50.154;8.682;2022-08-11T14:07:28;43.70;21.90
65568;DHT22;52211;50.154;8.682;2022-08-11T14:10:03;43.80;22.10
65568;DHT22;52211;50.154;8.682;2022-08-11T14:12:36;43.80;22.30
65568;DHT22;52211;50.154;8.682;2022-08-11T14:15:34;43.80;22.30
65568;DHT22;52211;50.154;8.682;2022-08-11T14:18:18;43.90;22.00
65568;DHT22;52211;50.154;8.682;2022-08-11T14:20:59;44.00;22.00
65568;DHT22;52211;50.154;8.682;2022-08-11T14:23:50;44.20;21.80
65568;DHT22;52211;50.154;8.682;2022-08-11T14:26:27;44.20;21.80
65568;DHT22;52211;50.154;8.682;2022-08-11T14:29:06;44.30;21.80
65568;DHT22;52211;50.154;8.682;2022-08-11T14:31:37;44.40;21.60
65568;DHT22;52211;50.154;8.682;2022-08-11T14:34:09;44.50;21.70
65568;DHT22;52211;50.154;8.682;2022-08-11T14:36:43;44.60;21.60
65568;DHT22;52211;50.154;8.682;2022-08-11T14:39:18;44.70;21.40
65568;DHT22;52211;50.154;8.682;2022-08-11T14:41:55;44.80;21.40
65568;DHT22;52211;50.154;8.682;2022-08-11T14:44:49;44.90;21.50
65568;DHT22;52211;50.154;8.682;2022-08-11T14:47:48;44.90;21.30
65568;DHT22;52211;50.154;8.682;2022-08-11T14:50:26;45.10;21.20
65568;DHT22;52211;50.154;8.682;2022-08-11T14:53:06;45.20;21.00
65568;DHT22;52211;50.154;8.682;2022-08-11T14:55:41;45.30;20.90
65568;DHT22;52211;50.154;8.682;2022-08-11T14:58:30;45.30;21.00
65568;DHT22;52211;50.154;8.682;2022-08-11T15:01:01;45.30;20.70
65568;DHT22;52211;50.154;8.682;2022-08-11T15:03:52;45.40;21.00
65568;DHT22;52211;50.154;8.682;2022-08-11T15:06:43;45.40;20.80
65568;DHT22;52211;50.154;8.682;2022-08-11T15:09:14;45.50;20.90
65568;DHT22;52211;50.154;8.682;2022-08-11T15:11:44;45.60;20.50
65568;DHT22;52211;50.154;8.682;2022-08-11T15:14:30;45.50;20.40
65568;DHT22;52211;50.154;8.682;2022-08-11T15:17:24;45.50;20.40
65568;DHT22;52211;50.154;8.682;2022-08-11T15:20:13;45.30;20.20
65568;DHT22;52211;50.154;8.682;2022-08-11T15:23:03;45.20;20.30
65568;DHT22;52211;50.154;8.682;2022-08-11T15:25:55;45.20;20.30
65568;DHT22;52211;50.154;8.682;2022-08-11T15:28:32;45.10;20.20
65568;DHT22;52211;50.154;8.682;2022-08-11T15:31:22;45.00;20.30
65568;DHT22;52211;50.154;8.682;2022-08-11T15:34:00;45.00;20.30
65568;DHT22;52211;50.154;8.682;2022-08-11T15:36:48;45.10;20.30
65568;DHT22;52211;50.154;8.682;2022-08-11T15:42:31;45.10;20.10
65568;DHT22;52211;50.154;8.682;2022-08-11T15:45:25;45.00;20.10
65568;DHT22;52211;50.154;8.682;2022-08-11T15:48:14;44.90;20.10
65568;DHT22;52211;50.154;8.682;2022-08-11T15:50:51;45.00;20.10
65568;DHT22;52211;50.154;8.682;2022-08-11T15:56:06;45.00;20.00
65568;DHT22;52211;50.154;8.682;2022-08-11T15:58:44;45.00;20.00
65568;DHT22;52211;50.154;8.682;2022-08-11T16:01:53;44.80;19.80
65568;DHT22;52211;50.154;8.682;2022-08-11T16:04:44;44.70;19.90
65568;DHT22;52211;50.154;8.682;2022-08-11T16:07:21;44.50;19.90
65568;DHT22;52211;50.154;8.682;2022-08-11T16:10:02;44.30;19.70
65568;DHT22;52211;50.154;8.682;2022-08-11T16:12:39;44.10;19.80
65568;DHT22;52211;50.154;8.682;2022-08-11T16:18:24;43.80;19.80
65568;DHT22;52211;50.154;8.682;2022-08-11T16:21:16;43.60;19.90
65568;DHT22;52211;50.154;8.682;2022-08-11T16:24:03;43.30;19.80
65568;DHT22;52211;50.154;8.682;2022-08-11T16:26:33;43.20;19.90
65568;DHT22;52211;50.154;8.682;2022-08-11T16:29:27;42.90;19.90
65568;DHT22;52211;50.154;8.682;2022-08-11T16:31:57;42.60;20.60
65568;DHT22;52211;50.154;8.682;2022-08-11T16:34:53;42.30;20.00
65568;DHT22;52211;50.154;8.682;2022-08-11T16:37:42;42.00;20.50
65568;DHT22;52211;50.154;8.682;2022-08-11T16:40:30;41.60;20.00
65568;DHT22;52211;50.154;8.682;2022-08-11T16:43:00;41.40;20.10
65568;DHT22;52211;50.154;8.682;2022-08-11T16:45:50;41.20;20.10
65568;DHT22;52211;50.154;8.682;2022-08-11T16:48:42;41.00;20.20
65568;DHT22;52211;50.154;8.682;2022-08-11T16:51:15;40.80;20.30
65568;DHT22;52211;50.154;8.682;2022-08-11T16:53:47;40.60;20.20
65568;DHT22;52211;50.154;8.682;2022-08-11T16:59:34;40.00;20.30
65568;DHT22;52211;50.154;8.682;2022-08-11T17:02:14;39.70;20.20
65568;DHT22;52211;50.154;8.682;2022-08-11T17:05:14;39.30;20.20
65568;DHT22;52211;50.154;8.682;2022-08-11T17:08:34;38.90;20.40
65568;DHT22;52211;50.154;8.682;2022-08-11T17:11:31;38.50;20.50
65568;DHT22;52211;50.154;8.682;2022-08-11T17:14:48;38.00;20.50
65568;DHT22;52211;50.154;8.682;2022-08-11T17:17:31;37.70;20.70
65568;DHT22;52211;50.154;8.682;2022-08-11T17:20:04;37.50;20.90
65568;DHT22;52211;50.154;8.682;2022-08-11T17:22:58;37.30;20.80
65568;DHT22;52211;50.154;8.682;2022-08-11T17:25:47;37.10;20.90
65568;DHT22;52211;50.154;8.682;2022-08-11T17:28:30;36.90;21.10
65568;DHT22;52211;50.154;8.682;2022-08-11T17:31:02;36.70;20.90
65568;DHT22;52211;50.154;8.682;2022-08-11T17:33:51;36.50;21.00
65568;DHT22;52211;50.154;8.682;2022-08-11T17:36:41;36.30;21.00
65568;DHT22;52211;50.154;8.682;2022-08-11T17:39:13;36.10;21.00
65568;DHT22;52211;50.154;8.682;2022-08-11T17:41:42;35.90;21.10
65568;DHT22;52211;50.154;8.682;2022-08-11T17:44:29;35.70;21.10
65568;DHT22;52211;50.154;8.682;2022-08-11T17:47:27;35.50;21.20
65568;DHT22;52211;50.154;8.682;2022-08-11T17:50:17;35.30;21.20
65568;DHT22;52211;50.154;8.682;2022-08-11T17:52:47;35.10;21.20
65568;DHT22;52211;50.154;8.682;2022-08-11T17:55:36;35.00;21.30
65568;DHT22;52211;50.154;8.682;2022-08-11T17:58:26;34.80;21.40
65568;DHT22;52211;50.154;8.682;2022-08-11T18:01:13;34.60;21.30
65568;DHT22;52211;50.154;8.682;2022-08-11T18:03:47;34.50;21.30
65568;DHT22;52211;50.154;8.682;2022-08-11T18:06:27;34.40;21.50
65568;DHT22;52211;50.154;8.682;2022-08-11T18:09:04;34.20;21.40
65568;DHT22;52211;50.154;8.682;2022-08-11T18:12:04;34.10;21.50
65568;DHT22;52211;50.154;8.682;2022-08-11T18:14:53;33.90;21.50
65568;DHT22;52211;50.154;8.682;2022-08-11T18:17:40;33.80;21.60
65568;DHT22;52211;50.154;8.682;2022-08-11T18:20:26;33.60;21.50
65568;DHT22;52211;50.154;8.682;2022-08-11T18:23:19;33.50;21.60
65568;DHT22;52211;50.154;8.682;2022-08-11T18:26:18;33.40;21.80
65568;DHT22;52211;50.154;8.682;2022-08-11T18:29:11;33.20;21.60
65568;DHT22;52211;50.154;8.682;2022-08-11T18:32:08;33.10;21.70
65568;DHT22;52211;50.154;8.682;2022-08-11T18:35:17;32.90;21.70
65568;DHT22;52211;50.154;8.682;2022-08-11T18:38:06;32.80;21.80
65568;DHT22;52211;50.154;8.682;2022-08-11T18:41:01;32.60;21.80
65568;DHT22;52211;50.154;8.682;2022-08-11T18:43:51;32.50;21.80
65568;DHT22;52211;50.154;8.682;2022-08-11T18:46:44;32.40;21.90
65568;DHT22;52211;50.154;8.682;2022-08-11T18:49:38;32.20;22.10
65568;DHT22;52211;50.154;8.682;2022-08-11T18:52:30;32.10;22.00
65568;DHT22;52211;50.154;8.682;2022-08-11T18:55:19;32.00;22.00
65568;DHT22;52211;50.154;8.682;2022-08-11T18:58:07;31.80;22.10
65568;DHT22;52211;50.154;8.682;2022-08-11T19:00:57;31.70;22.20
65568;DHT22;52211;50.154;8.682;2022-08-11T19:03:48;31.60;22.30
65568;DHT22;52211;50.154;8.682;2022-08-11T19:06:37;31.40;22.40
65568;DHT22;52211;50.154;8.682;2022-08-11T19:09:26;31.30;22.30
65568;DHT22;52211;50.154;8.682;2022-08-11T19:12:14;31.20;22.40
65568;DHT22;52211;50.154;8.682;2022-08-11T19:15:02;31.10;22.50
65568;DHT22;52211;50.154;8.682;2022-08-11T19:17:51;30.90;22.50
65568;DHT22;52211;50.154;8.682;2022-08-11T19:20:41;30.80;22.60
65568;DHT22;52211;50.154;8.682;2022-08-11T19:23:34;30.70;22.70
65568;DHT22;52211;50.154;8.682;2022-08-11T19:26:26;30.60;22.90
65568;DHT22;52211;50.154;8.682;2022-08-11T19:29:19;30.40;22.70
65568;DHT22;52211;50.154;8.682;2022-08-11T19:32:29;30.30;22.70
65568;DHT22;52211;50.154;8.682;2022-08-11T19:35:18;30.20;22.90
65568;DHT22;52211;50.154;8.682;2022-08-11T19:38:06;30.10;22.90
65568;DHT22;52211;50.154;8.682;2022-08-11T19:40:53;30.00;23.00
65568;DHT22;52211;50.154;8.682;2022-08-11T19:43:44;29.90;23.10
65568;DHT22;52211;50.154;8.682;2022-08-11T19:46:35;29.90;23.20
65568;DHT22;52211;50.154;8.682;2022-08-11T19:49:24;29.70;23.50
65568;DHT22;52211;50.154;8.682;2022-08-11T19:52:11;29.60;23.30
65568;DHT22;52211;50.154;8.682;2022-08-11T19:54:58;29.50;23.40
65568;DHT22;52211;50.154;8.682;2022-08-11T19:57:45;29.40;23.40
65568;DHT22;52211;50.154;8.682;2022-08-11T20:00:32;29.40;23.60
65568;DHT22;52211;50.154;8.682;2022-08-11T20:03:18;29.30;23.70
65568;DHT22;52211;50.154;8.682;2022-08-11T20:06:07;29.20;23.70
65568;DHT22;52211;50.154;8.682;2022-08-11T20:08:59;29.10;23.80
65568;DHT22;52211;50.154;8.682;2022-08-11T20:11:52;29.00;24.00
65568;DHT22;52211;50.154;8.682;2022-08-11T20:14:45;28.90;24.20
65568;DHT22;52211;50.154;8.682;2022-08-11T20:17:37;28.80;24.00
65568;DHT22;52211;50.154;8.682;2022-08-11T20:20:26;28.70;24.10
65568;DHT22;52211;50.154;8.682;2022-08-11T20:23:15;28.70;24.20
65568;DHT22;52211;50.154;8.682;2022-08-11T20:26:03;28.60;24.30
65568;DHT22;52211;50.154;8.682;2022-08-11T20:28:58;28.50;24.30
65568;DHT22;52211;50.154;8.682;2022-08-11T20:31:45;28.40;24.30
65568;DHT22;52211;50.154;8.682;2022-08-11T20:34:30;28.40;24.40
65568;DHT22;52211;50.154;8.682;2022-08-11T20:37:18;28.30;24.50
65568;DHT22;52211;50.154;8.682;2022-08-11T20:40:09;28.20;24.50
65568;DHT22;52211;50.154;8.682;2022-08-11T20:42:58;28.20;24.70